sensor_id;sensor_type;location;lat;lon;timestamp;P1;durP1;ratioP1;P2;durP2;ratioP2
3633;SDS011;1833;42.718;23.270;2022-12-18T00:02:01;25.13;;;22.70;;
3633;SDS011;1833;42.718;23.270;2022-12-18T00:04:28;21.73;;;19.87;;
3633;SDS011;1833;42.718;23.270;2022-12-18T00:06:55;24.27;;;22.07;;
3633;SDS011;1833;42.718;23.270;2022-12-18T00:09:23;24.57;;;22.47;;
3633;SDS011;1833;42.718;23.270;2022-12-18T00:11:50;19.83;;;18.20;;
3633;SDS011;1833;42.718;23.270;2022-12-18T00:14:17;23.00;;;21.20;;
3633;SDS011;1833;42.718;23.270;2022-12-18T00:16:45;22.23;;;20.50;;
3633;SDS011;1833;42.718;23.270;2022-12-18T00:19:14;23.87;;;21.77;;
3633;SDS011;1833;42.718;23.270;2022-12-18T00:21:42;23.13;;;21.13;;
3633;SDS011;1833;42.718;23.270;2022-12-18T00:24:10;23.80;;;21.50;;
3633;SDS011;1833;42.718;23.270;2022-12-18T00:26:37;22.93;;;20.80;;
3633;SDS011;1833;42.718;23.270;2022-12-18T00:29:06;20.67;;;19.13;;
3633;SDS011;1833;42.718;23.270;2022-12-18T00:31:33;23.10;;;21.03;;
3633;SDS011;1833;42.718;23.270;2022-12-18T00:34:01;23.90;;;21.73;;
3633;SDS011;1833;42.718;23.270;2022-12-18T00:36:30;24.00;;;21.63;;
3633;SDS011;1833;42.718;23.270;2022-12-18T00:38:59;23.10;;;20.80;;
3633;SDS011;1833;42.718;23.270;2022-12-18T00:41:26;23.93;;;21.67;;
3633;SDS011;1833;42.718;23.270;2022-12-18T00:44:12;24.63;;;22.40;;
3633;SDS011;1833;42.718;23.270;2022-12-18T00:46:40;25.13;;;22.93;;
3633;SDS011;1833;42.718;23.270;2022-12-18T00:49:07;20.33;;;18.77;;
3633;SDS011;1833;42.718;23.270;2022-12-18T00:51:36;24.30;;;22.20;;
3633;SDS011;1833;42.718;23.270;2022-12-18T00:54:03;21.37;;;19.47;;
3633;SDS011;1833;42.718;23.270;2022-12-18T00:56:31;24.70;;;22.10;;
3633;SDS011;1833;42.718;23.270;2022-12-18T00:58:58;20.30;;;18.80;;
3633;SDS011;1833;42.718;23.270;2022-12-18T01:01:26;24.63;;;22.17;;
3633;SDS011;1833;42.718;23.270;2022-12-18T01:03:53;24.80;;;22.50;;
3633;SDS011;1833;42.718;23.270;2022-12-18T01:06:20;22.33;;;20.63;;
3633;SDS011;1833;42.718;23.270;2022-12-18T01:08:49;22.00;;;19.80;;
3633;SDS011;1833;42.718;23.270;2022-12-18T01:11:17;23.30;;;21.27;;
3633;SDS011;1833;42.718;23.270;2022-12-18T01:13:44;23.00;;;21.10;;
3633;SDS011;1833;42.718;23.270;2022-12-18T01:16:12;25.53;;;23.07;;
3633;SDS011;1833;42.718;23.270;2022-12-18T01:18:39;21.57;;;19.77;;
3633;SDS011;1833;42.718;23.270;2022-12-18T01:21:07;22.50;;;20.40;;
3633;SDS011;1833;42.718;23.270;2022-12-18T01:23:34;24.60;;;22.27;;
3633;SDS011;1833;42.718;23.270;2022-12-18T01:26:07;23.53;;;21.27;;
3633;SDS011;1833;42.718;23.270;2022-12-18T01:28:34;25.97;;;23.40;;
3633;SDS011;1833;42.718;23.270;2022-12-18T01:31:11;25.90;;;23.40;;
3633;SDS011;1833;42.718;23.270;2022-12-18T01:33:39;25.90;;;23.30;;
3633;SDS011;1833;42.718;23.270;2022-12-18T01:36:07;25.50;;;23.10;;
3633;SDS011;1833;42.718;23.270;2022-12-18T01:38:34;18.53;;;17.43;;
3633;SDS011;1833;42.718;23.270;2022-12-18T01:41:01;23.63;;;21.63;;
3633;SDS011;1833;42.718;23.270;2022-12-18T01:43:44;20.77;;;18.93;;
3633;SDS011;1833;42.718;23.270;2022-12-18T01:46:11;24.30;;;22.20;;
3633;SDS011;1833;42.718;23.270;2022-12-18T01:48:39;25.63;;;23.03;;
3633;SDS011;1833;42.718;23.270;2022-12-18T01:51:07;24.63;;;22.43;;
3633;SDS011;1833;42.718;23.270;2022-12-18T01:53:35;24.87;;;22.67;;
3633;SDS011;1833;42.718;23.270;2022-12-18T01:56:03;17.67;;;16.57;;
3633;SDS011;1833;42.718;23.270;2022-12-18T01:58:32;23.47;;;21.30;;
3633;SDS011;1833;42.718;23.270;2022-12-18T02:01:04;19.40;;;17.80;;
3633;SDS011;1833;42.718;23.270;2022-12-18T02:03:31;22.47;;;20.67;;
3633;SDS011;1833;42.718;23.270;2022-12-18T02:05:59;24.23;;;22.00;;
3633;SDS011;1833;42.718;23.270;2022-12-18T02:08:30;23.10;;;21.23;;
3633;SDS011;1833;42.718;23.270;2022-12-18T02:11:01;22.20;;;20.40;;
3633;SDS011;1833;42.718;23.270;2022-12-18T02:13:30;23.83;;;21.47;;
3633;SDS011;1833;42.718;23.270;2022-12-18T02:16:00;25.33;;;22.87;;
3633;SDS011;1833;42.718;23.270;2022-12-18T02:18:32;24.83;;;22.50;;
3633;SDS011;1833;42.718;23.270;2022-12-18T02:21:02;23.80;;;22.00;;
3633;SDS011;1833;42.718;23.270;2022-12-18T02:23:38;23.50;;;21.47;;
3633;SDS011;1833;42.718;23.270;2022-12-18T02:26:11;23.50;;;21.50;;
3633;SDS011;1833;42.718;23.270;2022-12-18T02:28:42;24.60;;;22.30;;
3633;SDS011;1833;42.718;23.270;2022-12-18T02:31:10;24.43;;;22.33;;
3633;SDS011;1833;42.718;23.270;2022-12-18T02:33:38;24.87;;;22.43;;
3633;SDS011;1833;42.718;23.270;2022-12-18T02:36:07;23.73;;;21.87;;
3633;SDS011;1833;42.718;23.270;2022-12-18T02:38:35;24.50;;;22.50;;
3633;SDS011;1833;42.718;23.270;2022-12-18T02:41:03;22.70;;;20.60;;
3633;SDS011;1833;42.718;23.270;2022-12-18T02:43:32;23.40;;;21.50;;
3633;SDS011;1833;42.718;23.270;2022-12-18T02:46:00;24.10;;;22.17;;
3633;SDS011;1833;42.718;23.270;2022-12-18T02:48:29;22.63;;;20.77;;
3633;SDS011;1833;42.718;23.270;2022-12-18T02:50:59;24.00;;;21.90;;
3633;SDS011;1833;42.718;23.270;2022-12-18T02:53:32;22.27;;;20.27;;
3633;SDS011;1833;42.718;23.270;2022-12-18T02:56:02;25.17;;;23.00;;
3633;SDS011;1833;42.718;23.270;2022-12-18T02:58:32;24.70;;;22.47;;
3633;SDS011;1833;42.718;23.270;2022-12-18T03:01:03;20.83;;;19.17;;
3633;SDS011;1833;42.718;23.270;2022-12-18T03:03:35;24.43;;;21.87;;
3633;SDS011;1833;42.718;23.270;2022-12-18T03:06:06;25.37;;;22.90;;
3633;SDS011;1833;42.718;23.270;2022-12-18T03:08:36;24.83;;;22.43;;
3633;SDS011;1833;42.718;23.270;2022-12-18T03:11:05;22.67;;;20.83;;
3633;SDS011;1833;42.718;23.270;2022-12-18T03:13:33;20.57;;;19.20;;
3633;SDS011;1833;42.718;23.270;2022-12-18T03:16:03;20.50;;;18.90;;
3633;SDS011;1833;42.718;23.270;2022-12-18T03:18:33;23.97;;;21.50;;
3633;SDS011;1833;42.718;23.270;2022-12-18T03:21:03;22.70;;;20.93;;
3633;SDS011;1833;42.718;23.270;2022-12-18T03:23:32;23.27;;;21.47;;
3633;SDS011;1833;42.718;23.270;2022-12-18T03:26:05;27.27;;;24.67;;
3633;SDS011;1833;42.718;23.270;2022-12-18T03:28:34;22.73;;;20.93;;
3633;SDS011;1833;42.718;23.270;2022-12-18T03:31:04;24.97;;;22.50;;
3633;SDS011;1833;42.718;23.270;2022-12-18T03:33:32;23.90;;;21.40;;
3633;SDS011;1833;42.718;23.270;2022-12-18T03:36:01;22.07;;;20.43;;
3633;SDS011;1833;42.718;23.270;2022-12-18T03:38:29;20.07;;;18.67;;
3633;SDS011;1833;42.718;23.270;2022-12-18T03:40:58;24.30;;;22.27;;
3633;SDS011;1833;42.718;23.270;2022-12-18T03:43:29;22.67;;;20.87;;
3633;SDS011;1833;42.718;23.270;2022-12-18T03:46:01;24.20;;;22.07;;
3633;SDS011;1833;42.718;23.270;2022-12-18T03:48:31;23.47;;;21.67;;
3633;SDS011;1833;42.718;23.270;2022-12-18T03:51:01;24.23;;;22.50;;
3633;SDS011;1833;42.718;23.270;2022-12-18T03:53:32;24.90;;;22.60;;
3633;SDS011;1833;42.718;23.270;2022-12-18T03:56:02;23.23;;;21.20;;
3633;SDS011;1833;42.718;23.270;2022-12-18T03:58:31;24.27;;;22.33;;
3633;SDS011;1833;42.718;23.270;2022-12-18T04:01:00;25.33;;;22.83;;
3633;SDS011;1833;42.718;23.270;2022-12-18T04:03:28;21.50;;;19.67;;
3633;SDS011;1833;42.718;23.270;2022-12-18T04:05:58;24.87;;;22.77;;
3633;SDS011;1833;42.718;23.270;2022-12-18T04:08:26;26.60;;;24.23;;
3633;SDS011;1833;42.718;23.270;2022-12-18T04:10:54;25.93;;;23.67;;
3633;SDS011;1833;42.718;23.270;2022-12-18T04:13:21;25.93;;;23.67;;
3633;SDS011;1833;42.718;23.270;2022-12-18T04:15:49;25.73;;;23.47;;
3633;SDS011;1833;42.718;23.270;2022-12-18T04:18:16;26.27;;;23.77;;
3633;SDS011;1833;42.718;23.270;2022-12-18T04:20:43;25.67;;;23.20;;
3633;SDS011;1833;42.718;23.270;2022-12-18T04:23:12;24.70;;;22.63;;
3633;SDS011;1833;42.718;23.270;2022-12-18T04:25:39;27.73;;;24.93;;
3633;SDS011;1833;42.718;23.270;2022-12-18T04:28:06;27.27;;;24.47;;
3633;SDS011;1833;42.718;23.270;2022-12-18T04:30:34;23.43;;;21.47;;
3633;SDS011;1833;42.718;23.270;2022-12-18T04:33:01;26.47;;;24.03;;
3633;SDS011;1833;42.718;23.270;2022-12-18T04:35:28;29.20;;;26.43;;
3633;SDS011;1833;42.718;23.270;2022-12-18T04:37:56;25.20;;;23.10;;
3633;SDS011;1833;42.718;23.270;2022-12-18T04:40:24;28.10;;;25.60;;
3633;SDS011;1833;42.718;23.270;2022-12-18T04:42:52;30.93;;;26.00;;
3633;SDS011;1833;42.718;23.270;2022-12-18T04:45:19;30.13;;;26.93;;
3633;SDS011;1833;42.718;23.270;2022-12-18T04:47:46;29.60;;;26.57;;
3633;SDS011;1833;42.718;23.270;2022-12-18T04:50:13;28.87;;;26.07;;
3633;SDS011;1833;42.718;23.270;2022-12-18T04:52:41;28.03;;;25.23;;
3633;SDS011;1833;42.718;23.270;2022-12-18T04:55:08;28.77;;;25.97;;
3633;SDS011;1833;42.718;23.270;2022-12-18T04:57:37;29.60;;;26.50;;
3633;SDS011;1833;42.718;23.270;2022-12-18T05:00:04;29.30;;;24.07;;
3633;SDS011;1833;42.718;23.270;2022-12-18T05:02:32;28.50;;;25.40;;
3633;SDS011;1833;42.718;23.270;2022-12-18T05:04:59;29.70;;;25.03;;
3633;SDS011;1833;42.718;23.270;2022-12-18T05:07:26;27.73;;;23.83;;
3633;SDS011;1833;42.718;23.270;2022-12-18T05:09:54;32.70;;;28.13;;
3633;SDS011;1833;42.718;23.270;2022-12-18T05:12:21;27.10;;;24.40;;
3633;SDS011;1833;42.718;23.270;2022-12-18T05:14:50;34.93;;;27.33;;
3633;SDS011;1833;42.718;23.270;2022-12-18T05:17:17;27.17;;;24.40;;
3633;SDS011;1833;42.718;23.270;2022-12-18T05:19:44;31.17;;;25.63;;
3633;SDS011;1833;42.718;23.270;2022-12-18T05:22:12;28.33;;;25.27;;
3633;SDS011;1833;42.718;23.270;2022-12-18T05:24:39;29.13;;;26.17;;
3633;SDS011;1833;42.718;23.270;2022-12-18T05:27:06;28.50;;;25.60;;
3633;SDS011;1833;42.718;23.270;2022-12-18T05:29:34;28.37;;;25.37;;
3633;SDS011;1833;42.718;23.270;2022-12-18T05:32:03;26.70;;;24.07;;
3633;SDS011;1833;42.718;23.270;2022-12-18T05:34:30;33.17;;;27.47;;
3633;SDS011;1833;42.718;23.270;2022-12-18T05:36:58;34.90;;;24.10;;
3633;SDS011;1833;42.718;23.270;2022-12-18T05:39:25;27.60;;;24.73;;
3633;SDS011;1833;42.718;23.270;2022-12-18T05:41:53;34.73;;;26.70;;
3633;SDS011;1833;42.718;23.270;2022-12-18T05:44:20;32.30;;;26.63;;
3633;SDS011;1833;42.718;23.270;2022-12-18T05:46:47;33.37;;;28.87;;
3633;SDS011;1833;42.718;23.270;2022-12-18T05:49:16;29.43;;;25.63;;
3633;SDS011;1833;42.718;23.270;2022-12-18T05:51:43;35.43;;;26.47;;
3633;SDS011;1833;42.718;23.270;2022-12-18T05:54:11;34.23;;;26.80;;
3633;SDS011;1833;42.718;23.270;2022-12-18T05:56:38;31.70;;;28.23;;
3633;SDS011;1833;42.718;23.270;2022-12-18T05:59:05;31.13;;;27.70;;
3633;SDS011;1833;42.718;23.270;2022-12-18T06:01:32;31.43;;;26.70;;
3633;SDS011;1833;42.718;23.270;2022-12-18T06:04:00;34.30;;;28.20;;
3633;SDS011;1833;42.718;23.270;2022-12-18T06:06:28;31.60;;;26.63;;
3633;SDS011;1833;42.718;23.270;2022-12-18T06:08:56;29.27;;;25.87;;
3633;SDS011;1833;42.718;23.270;2022-12-18T06:11:23;38.43;;;27.97;;
3633;SDS011;1833;42.718;23.270;2022-12-18T06:13:51;31.50;;;27.53;;
3633;SDS011;1833;42.718;23.270;2022-12-18T06:16:19;31.17;;;26.50;;
3633;SDS011;1833;42.718;23.270;2022-12-18T06:18:46;27.27;;;24.70;;
3633;SDS011;1833;42.718;23.270;2022-12-18T06:21:13;27.80;;;24.77;;
3633;SDS011;1833;42.718;23.270;2022-12-18T06:23:42;28.63;;;25.60;;
3633;SDS011;1833;42.718;23.270;2022-12-18T06:26:10;28.70;;;25.90;;
3633;SDS011;1833;42.718;23.270;2022-12-18T06:28:38;35.03;;;26.57;;
3633;SDS011;1833;42.718;23.270;2022-12-18T06:31:05;29.20;;;26.03;;
3633;SDS011;1833;42.718;23.270;2022-12-18T06:33:33;26.77;;;24.07;;
3633;SDS011;1833;42.718;23.270;2022-12-18T06:36:04;25.13;;;22.37;;
3633;SDS011;1833;42.718;23.270;2022-12-18T06:38:44;32.33;;;28.17;;
3633;SDS011;1833;42.718;23.270;2022-12-18T06:41:12;35.00;;;26.80;;
3633;SDS011;1833;42.718;23.270;2022-12-18T06:43:39;23.93;;;21.90;;
3633;SDS011;1833;42.718;23.270;2022-12-18T06:46:07;28.40;;;25.60;;
3633;SDS011;1833;42.718;23.270;2022-12-18T06:48:35;28.03;;;25.63;;
3633;SDS011;1833;42.718;23.270;2022-12-18T06:51:02;27.83;;;22.70;;
3633;SDS011;1833;42.718;23.270;2022-12-18T06:53:29;34.30;;;26.80;;
3633;SDS011;1833;42.718;23.270;2022-12-18T06:56:01;24.43;;;22.23;;
3633;SDS011;1833;42.718;23.270;2022-12-18T06:58:33;30.60;;;26.50;;
3633;SDS011;1833;42.718;23.270;2022-12-18T07:01:00;30.00;;;24.37;;
3633;SDS011;1833;42.718;23.270;2022-12-18T07:03:35;28.17;;;25.27;;
3633;SDS011;1833;42.718;23.270;2022-12-18T07:06:02;30.77;;;24.77;;
3633;SDS011;1833;42.718;23.270;2022-12-18T07:08:30;24.53;;;21.97;;
3633;SDS011;1833;42.718;23.270;2022-12-18T07:10:58;27.23;;;24.63;;
3633;SDS011;1833;42.718;23.270;2022-12-18T07:13:27;27.70;;;25.00;;
3633;SDS011;1833;42.718;23.270;2022-12-18T07:15:54;31.37;;;28.03;;
3633;SDS011;1833;42.718;23.270;2022-12-18T07:18:21;27.17;;;24.47;;
3633;SDS011;1833;42.718;23.270;2022-12-18T07:20:48;30.93;;;27.63;;
3633;SDS011;1833;42.718;23.270;2022-12-18T07:23:16;33.30;;;27.73;;
3633;SDS011;1833;42.718;23.270;2022-12-18T07:25:43;39.83;;;29.33;;
3633;SDS011;1833;42.718;23.270;2022-12-18T07:28:10;30.83;;;26.70;;
3633;SDS011;1833;42.718;23.270;2022-12-18T07:30:39;26.60;;;24.07;;
3633;SDS011;1833;42.718;23.270;2022-12-18T07:33:06;34.43;;;28.97;;
3633;SDS011;1833;42.718;23.270;2022-12-18T07:35:33;38.03;;;30.40;;
3633;SDS011;1833;42.718;23.270;2022-12-18T07:38:01;39.27;;;30.83;;
3633;SDS011;1833;42.718;23.270;2022-12-18T07:40:28;36.60;;;27.47;;
3633;SDS011;1833;42.718;23.270;2022-12-18T07:42:55;41.87;;;31.10;;
3633;SDS011;1833;42.718;23.270;2022-12-18T07:45:22;29.73;;;26.57;;
3633;SDS011;1833;42.718;23.270;2022-12-18T07:47:51;30.03;;;26.50;;
3633;SDS011;1833;42.718;23.270;2022-12-18T07:50:18;35.07;;;28.10;;
3633;SDS011;1833;42.718;23.270;2022-12-18T07:52:46;32.17;;;28.70;;
3633;SDS011;1833;42.718;23.270;2022-12-18T07:55:13;34.77;;;28.73;;
3633;SDS011;1833;42.718;23.270;2022-12-18T07:57:40;39.83;;;29.40;;
3633;SDS011;1833;42.718;23.270;2022-12-18T08:00:08;33.03;;;28.20;;
3633;SDS011;1833;42.718;23.270;2022-12-18T08:02:35;34.03;;;28.07;;
3633;SDS011;1833;42.718;23.270;2022-12-18T08:05:04;30.17;;;26.60;;
3633;SDS011;1833;42.718;23.270;2022-12-18T08:07:32;30.43;;;27.33;;
3633;SDS011;1833;42.718;23.270;2022-12-18T08:09:59;30.73;;;27.27;;
3633;SDS011;1833;42.718;23.270;2022-12-18T08:12:27;33.47;;;29.40;;
3633;SDS011;1833;42.718;23.270;2022-12-18T08:14:54;31.23;;;28.20;;
3633;SDS011;1833;42.718;23.270;2022-12-18T08:17:21;28.30;;;25.53;;
3633;SDS011;1833;42.718;23.270;2022-12-18T08:19:48;29.47;;;26.37;;
3633;SDS011;1833;42.718;23.270;2022-12-18T08:22:17;42.83;;;32.50;;
3633;SDS011;1833;42.718;23.270;2022-12-18T08:24:44;30.93;;;27.63;;
3633;SDS011;1833;42.718;23.270;2022-12-18T08:27:12;27.43;;;24.60;;
3633;SDS011;1833;42.718;23.270;2022-12-18T08:29:39;30.33;;;27.13;;
3633;SDS011;1833;42.718;23.270;2022-12-18T08:32:06;30.93;;;27.63;;
3633;SDS011;1833;42.718;23.270;2022-12-18T08:34:33;29.50;;;26.07;;
3633;SDS011;1833;42.718;23.270;2022-12-18T08:37:01;32.60;;;28.87;;
3633;SDS011;1833;42.718;23.270;2022-12-18T08:39:30;34.10;;;30.00;;
3633;SDS011;1833;42.718;23.270;2022-12-18T08:41:57;34.40;;;28.47;;
3633;SDS011;1833;42.718;23.270;2022-12-18T08:44:42;29.77;;;26.60;;
3633;SDS011;1833;42.718;23.270;2022-12-18T08:47:09;29.57;;;26.17;;
3633;SDS011;1833;42.718;23.270;2022-12-18T08:49:37;37.37;;;28.43;;
3633;SDS011;1833;42.718;23.270;2022-12-18T08:52:04;28.27;;;24.47;;
3633;SDS011;1833;42.718;23.270;2022-12-18T08:54:32;26.00;;;23.50;;
3633;SDS011;1833;42.718;23.270;2022-12-18T08:57:02;34.80;;;26.13;;
3633;SDS011;1833;42.718;23.270;2022-12-18T08:59:29;31.60;;;27.67;;
3633;SDS011;1833;42.718;23.270;2022-12-18T09:01:57;33.07;;;28.23;;
3633;SDS011;1833;42.718;23.270;2022-12-18T09:04:24;31.87;;;28.20;;
3633;SDS011;1833;42.718;23.270;2022-12-18T09:06:51;28.20;;;25.00;;
3633;SDS011;1833;42.718;23.270;2022-12-18T09:09:18;36.83;;;29.67;;
3633;SDS011;1833;42.718;23.270;2022-12-18T09:11:47;30.30;;;27.30;;
3633;SDS011;1833;42.718;23.270;2022-12-18T09:14:14;29.90;;;26.73;;
3633;SDS011;1833;42.718;23.270;2022-12-18T09:16:42;32.53;;;28.33;;
3633;SDS011;1833;42.718;23.270;2022-12-18T09:19:09;33.47;;;27.77;;
3633;SDS011;1833;42.718;23.270;2022-12-18T09:21:36;27.47;;;24.97;;
3633;SDS011;1833;42.718;23.270;2022-12-18T09:24:05;29.20;;;26.20;;
3633;SDS011;1833;42.718;23.270;2022-12-18T09:26:32;27.73;;;25.13;;
3633;SDS011;1833;42.718;23.270;2022-12-18T09:29:01;29.93;;;26.43;;
3633;SDS011;1833;42.718;23.270;2022-12-18T09:31:29;31.30;;;27.87;;
3633;SDS011;1833;42.718;23.270;2022-12-18T09:33:56;30.07;;;26.90;;
3633;SDS011;1833;42.718;23.270;2022-12-18T09:36:23;32.10;;;28.00;;
3633;SDS011;1833;42.718;23.270;2022-12-18T09:38:50;32.60;;;26.60;;
3633;SDS011;1833;42.718;23.270;2022-12-18T09:41:23;29.57;;;26.10;;
3633;SDS011;1833;42.718;23.270;2022-12-18T09:43:52;30.83;;;27.47;;
3633;SDS011;1833;42.718;23.270;2022-12-18T09:46:23;28.83;;;25.80;;
3633;SDS011;1833;42.718;23.270;2022-12-18T09:48:54;27.70;;;25.00;;
3633;SDS011;1833;42.718;23.270;2022-12-18T09:51:23;30.33;;;27.13;;
3633;SDS011;1833;42.718;23.270;2022-12-18T09:53:53;38.13;;;26.60;;
3633;SDS011;1833;42.718;23.270;2022-12-18T09:56:22;28.80;;;25.90;;
3633;SDS011;1833;42.718;23.270;2022-12-18T09:58:52;33.50;;;28.17;;
3633;SDS011;1833;42.718;23.270;2022-12-18T10:01:23;34.33;;;29.00;;
3633;SDS011;1833;42.718;23.270;2022-12-18T10:03:52;32.07;;;27.43;;
3633;SDS011;1833;42.718;23.270;2022-12-18T10:06:20;26.57;;;23.87;;
3633;SDS011;1833;42.718;23.270;2022-12-18T10:08:51;24.80;;;22.40;;
3633;SDS011;1833;42.718;23.270;2022-12-18T10:11:22;29.23;;;25.80;;
3633;SDS011;1833;42.718;23.270;2022-12-18T10:13:53;33.80;;;26.90;;
3633;SDS011;1833;42.718;23.270;2022-12-18T10:16:24;32.07;;;27.27;;
3633;SDS011;1833;42.718;23.270;2022-12-18T10:18:57;27.90;;;25.27;;
3633;SDS011;1833;42.718;23.270;2022-12-18T10:21:29;28.33;;;25.53;;
3633;SDS011;1833;42.718;23.270;2022-12-18T10:23:59;33.13;;;29.33;;
3633;SDS011;1833;42.718;23.270;2022-12-18T10:26:28;32.17;;;27.33;;
3633;SDS011;1833;42.718;23.270;2022-12-18T10:28:55;29.40;;;25.87;;
3633;SDS011;1833;42.718;23.270;2022-12-18T10:31:25;29.80;;;26.77;;
3633;SDS011;1833;42.718;23.270;2022-12-18T10:33:53;29.13;;;26.27;;
3633;SDS011;1833;42.718;23.270;2022-12-18T10:36:20;28.20;;;23.47;;
3633;SDS011;1833;42.718;23.270;2022-12-18T10:38:48;31.33;;;26.77;;
3633;SDS011;1833;42.718;23.270;2022-12-18T10:41:24;28.53;;;25.30;;
3633;SDS011;1833;42.718;23.270;2022-12-18T10:44:10;31.33;;;28.07;;
3633;SDS011;1833;42.718;23.270;2022-12-18T10:46:38;32.77;;;28.70;;
3633;SDS011;1833;42.718;23.270;2022-12-18T10:49:17;35.73;;;28.60;;
3633;SDS011;1833;42.718;23.270;2022-12-18T10:51:45;28.73;;;25.83;;
3633;SDS011;1833;42.718;23.270;2022-12-18T10:54:14;31.50;;;27.73;;
3633;SDS011;1833;42.718;23.270;2022-12-18T10:56:42;39.70;;;29.73;;
3633;SDS011;1833;42.718;23.270;2022-12-18T10:59:09;29.97;;;26.97;;
3633;SDS011;1833;42.718;23.270;2022-12-18T11:01:48;31.40;;;28.10;;
3633;SDS011;1833;42.718;23.270;2022-12-18T11:04:18;32.10;;;28.30;;
3633;SDS011;1833;42.718;23.270;2022-12-18T11:06:52;28.93;;;25.90;;
3633;SDS011;1833;42.718;23.270;2022-12-18T11:09:21;33.60;;;27.97;;
3633;SDS011;1833;42.718;23.270;2022-12-18T11:11:48;30.80;;;27.50;;
3633;SDS011;1833;42.718;23.270;2022-12-18T11:14:18;32.30;;;28.30;;
3633;SDS011;1833;42.718;23.270;2022-12-18T11:16:49;32.80;;;27.43;;
3633;SDS011;1833;42.718;23.270;2022-12-18T11:19:26;31.23;;;28.13;;
3633;SDS011;1833;42.718;23.270;2022-12-18T11:21:55;29.40;;;26.63;;
3633;SDS011;1833;42.718;23.270;2022-12-18T11:24:25;27.13;;;24.30;;
3633;SDS011;1833;42.718;23.270;2022-12-18T11:26:55;40.80;;;27.90;;
3633;SDS011;1833;42.718;23.270;2022-12-18T11:29:23;35.17;;;28.77;;
3633;SDS011;1833;42.718;23.270;2022-12-18T11:31:52;33.27;;;27.37;;
3633;SDS011;1833;42.718;23.270;2022-12-18T11:34:25;32.40;;;28.53;;
3633;SDS011;1833;42.718;23.270;2022-12-18T11:36:53;39.03;;;28.30;;
3633;SDS011;1833;42.718;23.270;2022-12-18T11:39:21;33.43;;;27.87;;
3633;SDS011;1833;42.718;23.270;2022-12-18T11:41:52;33.13;;;26.83;;
3633;SDS011;1833;42.718;23.270;2022-12-18T11:44:36;30.40;;;27.40;;
3633;SDS011;1833;42.718;23.270;2022-12-18T11:47:09;32.80;;;28.30;;
3633;SDS011;1833;42.718;23.270;2022-12-18T11:49:37;31.03;;;27.87;;
3633;SDS011;1833;42.718;23.270;2022-12-18T11:52:09;31.93;;;27.93;;
3633;SDS011;1833;42.718;23.270;2022-12-18T11:54:39;37.27;;;27.50;;
3633;SDS011;1833;42.718;23.270;2022-12-18T11:57:07;32.30;;;27.70;;
3633;SDS011;1833;42.718;23.270;2022-12-18T11:59:38;33.10;;;28.50;;
3633;SDS011;1833;42.718;23.270;2022-12-18T12:02:16;31.97;;;28.50;;
3633;SDS011;1833;42.718;23.270;2022-12-18T12:07:41;36.53;;;28.27;;
3633;SDS011;1833;42.718;23.270;2022-12-18T12:10:18;29.80;;;26.80;;
3633;SDS011;1833;42.718;23.270;2022-12-18T12:12:57;28.10;;;25.20;;
3633;SDS011;1833;42.718;23.270;2022-12-18T12:15:29;30.47;;;27.20;;
3633;SDS011;1833;42.718;23.270;2022-12-18T12:18:04;29.80;;;26.87;;
3633;SDS011;1833;42.718;23.270;2022-12-18T12:20:44;36.33;;;28.50;;
3633;SDS011;1833;42.718;23.270;2022-12-18T12:23:15;31.47;;;28.17;;
3633;SDS011;1833;42.718;23.270;2022-12-18T12:25:46;28.07;;;25.33;;
3633;SDS011;1833;42.718;23.270;2022-12-18T12:28:19;31.13;;;27.90;;
3633;SDS011;1833;42.718;23.270;2022-12-18T12:30:54;28.63;;;26.00;;
3633;SDS011;1833;42.718;23.270;2022-12-18T12:33:29;25.90;;;23.60;;
3633;SDS011;1833;42.718;23.270;2022-12-18T12:36:00;33.97;;;28.30;;
3633;SDS011;1833;42.718;23.270;2022-12-18T12:38:30;31.47;;;27.03;;
3633;SDS011;1833;42.718;23.270;2022-12-18T12:40:59;39.77;;;29.87;;
3633;SDS011;1833;42.718;23.270;2022-12-18T12:43:29;33.63;;;30.10;;
3633;SDS011;1833;42.718;23.270;2022-12-18T12:45:57;30.63;;;27.40;;
3633;SDS011;1833;42.718;23.270;2022-12-18T12:48:35;27.37;;;24.97;;
3633;SDS011;1833;42.718;23.270;2022-12-18T12:51:04;35.70;;;28.47;;
3633;SDS011;1833;42.718;23.270;2022-12-18T12:53:34;36.47;;;28.67;;
3633;SDS011;1833;42.718;23.270;2022-12-18T12:56:03;34.50;;;28.67;;
3633;SDS011;1833;42.718;23.270;2022-12-18T12:58:32;30.20;;;27.00;;
3633;SDS011;1833;42.718;23.270;2022-12-18T13:01:03;27.93;;;24.97;;
3633;SDS011;1833;42.718;23.270;2022-12-18T13:03:38;30.20;;;27.00;;
3633;SDS011;1833;42.718;23.270;2022-12-18T13:06:08;31.83;;;28.40;;
3633;SDS011;1833;42.718;23.270;2022-12-18T13:08:51;32.20;;;28.77;;
3633;SDS011;1833;42.718;23.270;2022-12-18T13:11:28;30.00;;;26.90;;
3633;SDS011;1833;42.718;23.270;2022-12-18T13:14:19;30.07;;;27.03;;
3633;SDS011;1833;42.718;23.270;2022-12-18T13:16:48;28.83;;;25.90;;
3633;SDS011;1833;42.718;23.270;2022-12-18T13:19:21;28.93;;;25.30;;
3633;SDS011;1833;42.718;23.270;2022-12-18T13:21:52;28.43;;;25.80;;
3633;SDS011;1833;42.718;23.270;2022-12-18T13:24:23;31.63;;;28.33;;
3633;SDS011;1833;42.718;23.270;2022-12-18T13:26:51;35.60;;;28.13;;
3633;SDS011;1833;42.718;23.270;2022-12-18T13:32:18;30.43;;;27.27;;
3633;SDS011;1833;42.718;23.270;2022-12-18T13:34:47;39.43;;;28.70;;
3633;SDS011;1833;42.718;23.270;2022-12-18T13:40:01;28.70;;;25.70;;
3633;SDS011;1833;42.718;23.270;2022-12-18T13:42:36;32.67;;;27.60;;
3633;SDS011;1833;42.718;23.270;2022-12-18T13:45:38;32.30;;;27.83;;
3633;SDS011;1833;42.718;23.270;2022-12-18T13:48:11;30.50;;;27.07;;
3633;SDS011;1833;42.718;23.270;2022-12-18T13:50:42;32.03;;;27.17;;
3633;SDS011;1833;42.718;23.270;2022-12-18T13:53:18;34.10;;;26.67;;
3633;SDS011;1833;42.718;23.270;2022-12-18T13:55:49;28.57;;;25.73;;
3633;SDS011;1833;42.718;23.270;2022-12-18T13:58:16;34.87;;;27.37;;
3633;SDS011;1833;42.718;23.270;2022-12-18T14:00:44;33.43;;;25.93;;
3633;SDS011;1833;42.718;23.270;2022-12-18T14:03:16;35.40;;;27.93;;
3633;SDS011;1833;42.718;23.270;2022-12-18T14:06:00;31.40;;;28.20;;
3633;SDS011;1833;42.718;23.270;2022-12-18T14:08:30;30.30;;;27.27;;
3633;SDS011;1833;42.718;23.270;2022-12-18T14:11:05;29.53;;;26.00;;
3633;SDS011;1833;42.718;23.270;2022-12-18T14:13:35;28.03;;;25.13;;
3633;SDS011;1833;42.718;23.270;2022-12-18T14:16:03;30.83;;;27.80;;
3633;SDS011;1833;42.718;23.270;2022-12-18T14:18:38;40.40;;;32.60;;
3633;SDS011;1833;42.718;23.270;2022-12-18T14:21:15;31.43;;;26.60;;
3633;SDS011;1833;42.718;23.270;2022-12-18T14:23:44;32.00;;;28.27;;
3633;SDS011;1833;42.718;23.270;2022-12-18T14:26:25;30.53;;;27.40;;
3633;SDS011;1833;42.718;23.270;2022-12-18T14:28:54;30.20;;;26.70;;
3633;SDS011;1833;42.718;23.270;2022-12-18T14:31:24;31.20;;;27.90;;
3633;SDS011;1833;42.718;23.270;2022-12-18T14:33:52;29.27;;;26.07;;
3633;SDS011;1833;42.718;23.270;2022-12-18T14:36:35;26.77;;;24.27;;
3633;SDS011;1833;42.718;23.270;2022-12-18T14:39:16;31.73;;;27.77;;
3633;SDS011;1833;42.718;23.270;2022-12-18T14:41:46;30.83;;;27.53;;
3633;SDS011;1833;42.718;23.270;2022-12-18T14:44:15;28.67;;;25.80;;
3633;SDS011;1833;42.718;23.270;2022-12-18T14:46:42;29.33;;;26.40;;
3633;SDS011;1833;42.718;23.270;2022-12-18T14:49:17;29.40;;;26.50;;
3633;SDS011;1833;42.718;23.270;2022-12-18T14:51:48;29.30;;;26.40;;
3633;SDS011;1833;42.718;23.270;2022-12-18T14:54:17;29.43;;;26.33;;
3633;SDS011;1833;42.718;23.270;2022-12-18T14:57:14;27.43;;;24.80;;